Time;durP1;ratioP1;P1;durP2;ratioP2;P2;SDS_P1;SDS_P2;PMS_P1;PMS_P2;Temp;Humidity;BMP_temperature;BMP_pressure;BME280_temperature;BME280_humidity;BME280_pressure;Samples;Min_cycle;Max_cycle;Signal;HPM_P1;HPM_P2
2022/03/28 00:01:31;;;;;;;13.78;7.05;;;;;;;;;;1680176;85;21063;-72
2022/03/28 00:03:57;;;;;;;14.63;6.65;;;;;;;;;;1672817;86;21024;-72
2022/03/28 00:06:24;;;;;;;18.87;7.90;;;;;;;;;;1672633;85;21043;-72
2022/03/28 00:08:50;;;;;;;16.73;8.33;;;;;;;;;;1672772;85;21051;-73
2022/03/28 00:11:17;;;;;;;17.92;7.03;;;;;;;;;;1672701;85;21409;-73
2022/03/28 00:13:44;;;;;;;19.23;8.40;;;;;;;;;;1672965;85;21043;-72
2022/03/28 00:16:11;;;;;;;19.40;7.47;;;;;;;;;;1672657;86;21039;-73
2022/03/28 00:18:39;;;;;;;17.85;6.65;;;;;;;;;;1672882;85;21583;-73
2022/03/28 00:21:05;;;;;;;19.07;8.43;;;;;;;;;;1672827;85;21531;-73
2022/03/28 00:23:32;;;;;;;13.13;6.80;;;;;;;;;;1672861;85;21114;-73
2022/03/28 00:26:00;;;;;;;25.52;10.10;;;;;;;;;;1672724;85;21143;-73
2022/03/28 00:28:26;;;;;;;20.50;9.58;;;;;;;;;;1672882;86;21521;-73
2022/03/28 00:30:52;;;;;;;15.15;7.58;;;;;;;;;;1672972;86;21027;-73
2022/03/28 00:33:18;;;;;;;16.95;6.80;;;;;;;;;;1672562;85;21056;-73
2022/03/28 00:35:45;;;;;;;13.48;6.12;;;;;;;;;;1672825;85;21004;-73
2022/03/28 00:38:12;;;;;;;13.28;5.78;;;;;;;;;;1672686;85;21035;-73
2022/03/28 00:40:39;;;;;;;9.58;4.85;;;;;;;;;;1672880;85;21008;-73
2022/03/28 00:43:06;;;;;;;10.80;4.42;;;;;;;;;;1672399;86;21071;-73
2022/03/28 00:45:33;;;;;;;10.63;3.95;;;;;;;;;;1672786;86;21047;-73
2022/03/28 00:48:00;;;;;;;10.38;4.60;;;;;;;;;;1672829;86;21043;-73
2022/03/28 00:50:28;;;;;;;7.55;4.08;;;;;;;;;;1672742;86;21044;-72
2022/03/28 00:52:54;;;;;;;9.28;4.28;;;;;;;;;;1672750;85;21048;-73
2022/03/28 00:55:21;;;;;;;10.65;4.28;;;;;;;;;;1672614;86;21617;-73
2022/03/28 00:57:48;;;;;;;9.25;4.53;;;;;;;;;;1672510;86;21084;-73
2022/03/28 01:03:24;;;;;;;8.68;3.92;;;;;;;;;;1720145;78;21618;-70
2022/03/28 01:05:52;;;;;;;10.45;4.53;;;;;;;;;;1680482;85;21112;-70
2022/03/28 01:08:20;;;;;;;8.28;3.65;;;;;;;;;;1660621;86;21087;-71
2022/03/28 01:10:48;;;;;;;9.73;4.33;;;;;;;;;;1660898;86;21020;-71
2022/03/28 01:13:14;;;;;;;11.78;4.50;;;;;;;;;;1660719;86;21064;-71
2022/03/28 01:15:40;;;;;;;8.33;4.35;;;;;;;;;;1636427;86;21027;-70
2022/03/28 01:18:08;;;;;;;12.30;4.50;;;;;;;;;;1663473;86;21083;-70
2022/03/28 01:20:37;;;;;;;12.63;4.20;;;;;;;;;;1655952;86;21079;-70
2022/03/28 01:23:03;;;;;;;11.55;5.00;;;;;;;;;;1654083;87;21626;-71
2022/03/28 01:25:30;;;;;;;11.68;4.35;;;;;;;;;;1654035;87;21091;-70
2022/03/28 01:27:58;;;;;;;10.08;4.55;;;;;;;;;;1653931;87;21036;-71
2022/03/28 01:30:26;;;;;;;11.00;4.05;;;;;;;;;;1653965;87;21040;-71
2022/03/28 01:32:52;;;;;;;10.90;3.40;;;;;;;;;;1654153;86;21088;-71
2022/03/28 01:35:26;;;;;;;7.28;3.77;;;;;;;;;;1653699;86;21127;-71
2022/03/28 01:37:53;;;;;;;9.98;4.00;;;;;;;;;;1654008;87;21103;-71
2022/03/28 01:40:19;;;;;;;7.85;3.27;;;;;;;;;;1653803;87;21076;-71
2022/03/28 01:42:48;;;;;;;7.92;3.85;;;;;;;;;;1654060;87;21001;-71
2022/03/28 01:45:14;;;;;;;8.18;3.30;;;;;;;;;;1653998;86;21503;-70
2022/03/28 01:47:41;;;;;;;8.75;3.37;;;;;;;;;;1654183;87;21520;-71
2022/03/28 01:50:07;;;;;;;5.03;3.22;;;;;;;;;;1653840;87;21048;-71
2022/03/28 01:52:34;;;;;;;8.85;2.87;;;;;;;;;;1654099;86;21096;-71
2022/03/28 01:55:00;;;;;;;5.08;2.70;;;;;;;;;;1653795;86;21072;-70
2022/03/28 01:57:28;;;;;;;5.60;2.55;;;;;;;;;;1654040;86;22126;-71
2022/03/28 01:59:54;;;;;;;14.30;4.00;;;;;;;;;;1653703;87;21544;-71
2022/03/28 02:02:21;;;;;;;10.08;4.22;;;;;;;;;;1654230;86;21566;-70
2022/03/28 02:04:49;;;;;;;7.60;4.08;;;;;;;;;;1677077;84;21228;-70
2022/03/28 02:07:17;;;;;;;12.58;5.35;;;;;;;;;;1685143;84;21097;-71
2022/03/28 02:09:46;;;;;;;9.43;4.05;;;;;;;;;;1684852;85;21076;-71
2022/03/28 02:12:14;;;;;;;9.70;4.67;;;;;;;;;;1684945;85;21030;-71
2022/03/28 02:14:41;;;;;;;13.05;5.12;;;;;;;;;;1685024;85;21081;-71
2022/03/28 02:17:08;;;;;;;12.70;4.90;;;;;;;;;;1684809;85;21025;-71
2022/03/28 02:19:35;;;;;;;9.90;4.35;;;;;;;;;;1685146;84;21124;-71
2022/03/28 02:22:01;;;;;;;13.18;4.90;;;;;;;;;;1684824;84;21043;-71
2022/03/28 02:24:29;;;;;;;11.88;4.97;;;;;;;;;;1684903;85;21128;-71
2022/03/28 02:26:55;;;;;;;14.13;5.30;;;;;;;;;;1684806;85;21077;-71
2022/03/28 02:29:22;;;;;;;10.15;4.60;;;;;;;;;;1685147;84;21053;-72
2022/03/28 02:31:49;;;;;;;17.10;4.80;;;;;;;;;;1685060;85;21531;-71
2022/03/28 02:34:15;;;;;;;12.40;4.85;;;;;;;;;;1685223;85;21084;-72
2022/03/28 02:36:42;;;;;;;10.00;4.50;;;;;;;;;;1685086;84;21084;-71
2022/03/28 02:39:10;;;;;;;10.90;3.75;;;;;;;;;;1685341;84;21037;-71
2022/03/28 02:41:37;;;;;;;8.78;3.80;;;;;;;;;;1685112;85;21934;-71
2022/03/28 02:44:04;;;;;;;6.90;3.42;;;;;;;;;;1685112;84;21076;-71
2022/03/28 02:46:31;;;;;;;10.35;3.67;;;;;;;;;;1684977;84;21069;-71
2022/03/28 02:48:58;;;;;;;8.55;3.85;;;;;;;;;;1684835;84;21052;-71
2022/03/28 02:51:24;;;;;;;10.63;3.85;;;;;;;;;;1685236;84;21014;-71
2022/03/28 02:53:50;;;;;;;8.70;4.17;;;;;;;;;;1684868;84;21068;-71
2022/03/28 02:56:16;;;;;;;8.33;3.37;;;;;;;;;;1685508;84;21084;-70
2022/03/28 02:58:42;;;;;;;12.82;4.08;;;;;;;;;;1685063;85;21544;-71
2022/03/28 03:01:09;;;;;;;7.95;3.35;;;;;;;;;;1685116;84;21111;-70
2022/03/28 03:03:35;;;;;;;7.12;3.72;;;;;;;;;;1685954;83;21108;-71
2022/03/28 03:06:02;;;;;;;5.90;3.25;;;;;;;;;;1694955;84;21084;-71
2022/03/28 03:08:29;;;;;;;9.23;4.60;;;;;;;;;;1694947;85;21079;-71
2022/03/28 03:10:55;;;;;;;7.55;3.83;;;;;;;;;;1695237;85;21076;-71
2022/03/28 03:13:22;;;;;;;7.15;3.45;;;;;;;;;;1695184;85;21045;-71
2022/03/28 03:15:48;;;;;;;6.40;3.10;;;;;;;;;;1695325;85;21496;-71
2022/03/28 03:18:16;;;;;;;7.83;3.67;;;;;;;;;;1695156;85;21817;-71
2022/03/28 03:20:42;;;;;;;11.80;4.10;;;;;;;;;;1695074;84;21057;-71
2022/03/28 03:23:09;;;;;;;10.93;3.85;;;;;;;;;;1695174;84;21353;-71
2022/03/28 03:25:36;;;;;;;8.65;3.60;;;;;;;;;;1694949;85;21076;-71
2022/03/28 03:28:03;;;;;;;7.60;3.47;;;;;;;;;;1695374;85;21033;-71
2022/03/28 03:30:31;;;;;;;7.87;3.35;;;;;;;;;;1695090;84;21525;-72
2022/03/28 03:32:58;;;;;;;9.55;3.92;;;;;;;;;;1695165;84;21036;-71
2022/03/28 03:35:24;;;;;;;6.08;3.47;;;;;;;;;;1694940;85;21048;-71
2022/03/28 03:37:50;;;;;;;10.68;3.60;;;;;;;;;;1695224;85;21148;-71
2022/03/28 03:40:17;;;;;;;5.92;3.12;;;;;;;;;;1694855;85;21072;-71
2022/03/28 03:42:44;;;;;;;9.88;4.50;;;;;;;;;;1695096;84;21088;-71
2022/03/28 03:45:11;;;;;;;9.08;3.42;;;;;;;;;;1695053;84;21087;-71
2022/03/28 03:47:38;;;;;;;8.58;3.77;;;;;;;;;;1695148;84;21021;-71
2022/03/28 03:50:05;;;;;;;10.55;3.72;;;;;;;;;;1695044;85;21048;-71
2022/03/28 03:52:31;;;;;;;8.30;3.55;;;;;;;;;;1695379;85;20985;-71
2022/03/28 03:54:57;;;;;;;10.30;3.70;;;;;;;;;;1695119;85;21501;-71
2022/03/28 03:57:23;;;;;;;12.58;4.45;;;;;;;;;;1695246;84;21561;-71
2022/03/28 03:59:49;;;;;;;6.42;3.72;;;;;;;;;;1675630;85;21025;-71
2022/03/28 04:02:16;;;;;;;13.80;4.50;;;;;;;;;;1695306;84;21524;-71
2022/03/28 04:04:41;;;;;;;7.40;3.40;;;;;;;;;;1690265;83;21155;-70
2022/03/28 04:07:07;;;;;;;8.65;3.65;;;;;;;;;;1684983;85;21568;-70
2022/03/28 04:09:34;;;;;;;6.87;3.15;;;;;;;;;;1685064;84;21541;-70
2022/03/28 04:12:01;;;;;;;6.97;3.08;;;;;;;;;;1685023;84;21049;-70
2022/03/28 04:14:28;;;;;;;6.08;3.00;;;;;;;;;;1685057;85;21057;-70
2022/03/28 04:16:56;;;;;;;9.78;3.10;;;;;;;;;;1684806;84;21033;-71
2022/03/28 04:19:22;;;;;;;5.60;2.67;;;;;;;;;;1685008;85;21040;-71
2022/03/28 04:21:50;;;;;;;8.03;2.85;;;;;;;;;;1684771;84;21124;-70
2022/03/28 04:24:18;;;;;;;8.03;2.52;;;;;;;;;;1684969;85;21083;-71
2022/03/28 04:26:44;;;;;;;7.00;2.80;;;;;;;;;;1685062;85;21013;-71
2022/03/28 04:29:11;;;;;;;7.80;2.77;;;;;;;;;;1684669;84;21069;-71
2022/03/28 04:31:40;;;;;;;6.65;3.30;;;;;;;;;;1685101;84;21120;-71
2022/03/28 04:34:09;;;;;;;10.13;3.40;;;;;;;;;;1684974;85;21120;-70
2022/03/28 04:36:37;;;;;;;8.90;3.55;;;;;;;;;;1685347;84;21052;-71
2022/03/28 04:39:05;;;;;;;6.53;4.05;;;;;;;;;;1684809;85;21045;-70
2022/03/28 04:41:32;;;;;;;10.30;3.85;;;;;;;;;;1684962;84;21013;-71
2022/03/28 04:43:58;;;;;;;9.55;4.12;;;;;;;;;;1684760;85;21065;-71
2022/03/28 04:46:25;;;;;;;7.67;3.87;;;;;;;;;;1685041;84;21124;-71
2022/03/28 04:48:51;;;;;;;6.35;3.55;;;;;;;;;;1684864;85;21068;-71
2022/03/28 04:51:17;;;;;;;8.40;3.87;;;;;;;;;;1684812;85;21088;-71
2022/03/28 04:53:43;;;;;;;6.45;3.35;;;;;;;;;;1684793;85;21048;-71
2022/03/28 04:56:09;;;;;;;5.22;2.67;;;;;;;;;;1685061;84;20958;-70
2022/03/28 04:58:35;;;;;;;5.62;2.67;;;;;;;;;;1684745;85;21044;-70
2022/03/28 05:01:02;;;;;;;8.85;3.20;;;;;;;;;;1684757;85;21065;-71
2022/03/28 05:03:28;;;;;;;6.00;3.00;;;;;;;;;;1684904;83;21076;-71
2022/03/28 05:05:55;;;;;;;7.92;2.95;;;;;;;;;;1684616;85;21120;-71
2022/03/28 05:08:21;;;;;;;6.35;3.08;;;;;;;;;;1685142;84;21092;-71
2022/03/28 05:10:48;;;;;;;5.67;2.90;;;;;;;;;;1684718;85;21076;-71
2022/03/28 05:13:15;;;;;;;14.73;3.40;;;;;;;;;;1685092;84;21064;-71
2022/03/28 05:15:42;;;;;;;5.90;2.87;;;;;;;;;;1684721;84;21683;-71
2022/03/28 05:18:10;;;;;;;8.93;3.47;;;;;;;;;;1685028;85;21066;-71
2022/03/28 05:20:36;;;;;;;9.30;3.42;;;;;;;;;;1684768;85;21100;-71
2022/03/28 05:23:03;;;;;;;5.50;2.58;;;;;;;;;;1685044;85;21061;-70
2022/03/28 05:25:29;;;;;;;8.60;3.65;;;;;;;;;;1684630;84;21053;-71
2022/03/28 05:27:56;;;;;;;9.25;3.92;;;;;;;;;;1685166;84;21037;-71
2022/03/28 05:30:23;;;;;;;8.20;3.40;;;;;;;;;;1684958;85;21111;-71
2022/03/28 05:32:50;;;;;;;7.08;3.22;;;;;;;;;;1685173;84;21065;-71
2022/03/28 05:35:17;;;;;;;9.80;2.98;;;;;;;;;;1684852;85;21565;-71
2022/03/28 05:37:43;;;;;;;6.83;3.00;;;;;;;;;;1685000;85;21112;-71
2022/03/28 05:40:10;;;;;;;7.90;2.67;;;;;;;;;;1684859;85;21077;-71
2022/03/28 05:42:37;;;;;;;7.55;3.30;;;;;;;;;;1685188;85;21505;-71
2022/03/28 05:45:04;;;;;;;8.58;3.08;;;;;;;;;;1684896;85;21485;-71
2022/03/28 05:47:31;;;;;;;7.08;2.92;;;;;;;;;;1684732;85;21101;-71
2022/03/28 05:49:57;;;;;;;7.22;3.10;;;;;;;;;;1685078;84;21009;-70
2022/03/28 05:52:24;;;;;;;6.05;2.72;;;;;;;;;;1684802;84;21084;-71
2022/03/28 05:54:51;;;;;;;6.75;3.60;;;;;;;;;;1684834;85;22143;-71
2022/03/28 05:57:18;;;;;;;7.42;3.75;;;;;;;;;;1684847;85;21042;-71
2022/03/28 05:59:44;;;;;;;9.75;2.72;;;;;;;;;;1684982;85;21073;-71
2022/03/28 06:02:11;;;;;;;5.62;3.15;;;;;;;;;;1684843;84;21072;-71
2022/03/28 06:04:38;;;;;;;5.67;2.52;;;;;;;;;;1684803;83;21085;-71
2022/03/28 06:07:05;;;;;;;4.55;2.12;;;;;;;;;;1684840;84;21556;-71
2022/03/28 06:09:32;;;;;;;5.22;2.80;;;;;;;;;;1684992;85;21053;-70
2022/03/28 06:11:59;;;;;;;7.20;3.25;;;;;;;;;;1684815;84;21092;-71
2022/03/28 06:14:25;;;;;;;9.35;3.15;;;;;;;;;;1685206;84;21076;-70
2022/03/28 06:16:51;;;;;;;5.60;2.58;;;;;;;;;;1684833;84;21060;-71
2022/03/28 06:19:20;;;;;;;4.35;2.55;;;;;;;;;;1684863;84;21064;-70
2022/03/28 06:21:46;;;;;;;9.18;3.25;;;;;;;;;;1684879;85;21082;-71
2022/03/28 06:24:14;;;;;;;8.40;2.98;;;;;;;;;;1684982;84;21120;-71
2022/03/28 06:26:41;;;;;;;6.95;3.35;;;;;;;;;;1685022;85;22117;-71
2022/03/28 06:29:10;;;;;;;6.70;2.25;;;;;;;;;;1684947;85;21089;-70
2022/03/28 06:31:37;;;;;;;12.78;3.47;;;;;;;;;;1685158;84;21084;-71
2022/03/28 06:34:05;;;;;;;5.83;2.85;;;;;;;;;;1685032;85;21057;-70
2022/03/28 06:36:34;;;;;;;7.70;2.72;;;;;;;;;;1684870;85;21088;-70
2022/03/28 06:39:02;;;;;;;8.78;2.40;;;;;;;;;;1685121;85;21080;-70
2022/03/28 06:41:30;;;;;;;5.47;2.40;;;;;;;;;;1685005;85;21072;-70
2022/03/28 06:43:57;;;;;;;6.35;2.60;;;;;;;;;;1684898;85;21073;-70
2022/03/28 06:46:25;;;;;;;4.58;2.42;;;;;;;;;;1685048;84;21021;-70
2022/03/28 06:48:54;;;;;;;5.87;2.67;;;;;;;;;;1685134;84;21552;-70
2022/03/28 06:51:20;;;;;;;4.87;2.10;;;;;;;;;;1685286;85;21040;-71
2022/03/28 06:53:49;;;;;;;6.17;2.52;;;;;;;;;;1685226;84;21037;-71
2022/03/28 06:56:17;;;;;;;10.68;2.67;;;;;;;;;;1685219;84;21005;-71
2022/03/28 06:58:43;;;;;;;8.68;3.05;;;;;;;;;;1685157;84;21540;-71
2022/03/28 07:01:12;;;;;;;5.58;2.50;;;;;;;;;;1685123;85;21033;-71
2022/03/28 07:03:39;;;;;;;6.92;2.67;;;;;;;;;;1684824;83;21568;-72
2022/03/28 07:06:07;;;;;;;5.78;2.55;;;;;;;;;;1692096;84;21536;-71
2022/03/28 07:08:35;;;;;;;9.10;3.00;;;;;;;;;;1695463;85;21032;-71
2022/03/28 07:11:02;;;;;;;6.17;2.77;;;;;;;;;;1695157;85;21032;-71
2022/03/28 07:13:31;;;;;;;7.70;2.67;;;;;;;;;;1695385;85;21008;-71
2022/03/28 07:15:59;;;;;;;4.05;1.92;;;;;;;;;;1694950;84;21036;-71
2022/03/28 07:18:28;;;;;;;4.75;2.62;;;;;;;;;;1695391;85;21012;-71
2022/03/28 07:20:55;;;;;;;4.95;2.12;;;;;;;;;;1695103;85;21053;-71
2022/03/28 07:23:23;;;;;;;3.65;2.47;;;;;;;;;;1675590;85;21029;-71
2022/03/28 07:25:51;;;;;;;5.17;2.60;;;;;;;;;;1695109;85;21052;-71
2022/03/28 07:28:19;;;;;;;4.87;2.80;;;;;;;;;;1695400;85;21005;-71
2022/03/28 07:30:46;;;;;;;5.92;2.60;;;;;;;;;;1695084;85;21574;-71
2022/03/28 07:33:14;;;;;;;4.90;2.35;;;;;;;;;;1695131;84;21562;-70
2022/03/28 07:35:41;;;;;;;4.10;2.37;;;;;;;;;;1695109;85;21560;-71
2022/03/28 07:38:10;;;;;;;6.12;2.85;;;;;;;;;;1695256;85;21013;-71
2022/03/28 07:40:40;;;;;;;6.45;3.00;;;;;;;;;;1695213;85;21001;-71
2022/03/28 07:43:08;;;;;;;5.62;2.95;;;;;;;;;;1695181;84;21603;-71
2022/03/28 07:45:35;;;;;;;3.40;2.20;;;;;;;;;;1695060;85;21044;-70
2022/03/28 07:48:02;;;;;;;4.10;2.00;;;;;;;;;;1695176;85;21040;-71
2022/03/28 07:50:30;;;;;;;5.45;1.95;;;;;;;;;;1695143;84;21013;-70
2022/03/28 07:52:59;;;;;;;5.95;2.22;;;;;;;;;;1695227;85;21013;-70
2022/03/28 07:55:28;;;;;;;5.25;2.00;;;;;;;;;;1695235;84;21536;-70
2022/03/28 07:57:55;;;;;;;4.37;2.85;;;;;;;;;;1695122;85;21024;-71
2022/03/28 08:00:22;;;;;;;3.62;2.30;;;;;;;;;;1695213;85;21568;-70
2022/03/28 08:02:50;;;;;;;5.95;2.83;;;;;;;;;;1695357;83;21132;-71
2022/03/28 08:05:18;;;;;;;5.33;2.58;;;;;;;;;;1692301;85;21510;-70
2022/03/28 08:07:45;;;;;;;5.55;2.58;;;;;;;;;;1685185;85;21513;-70
2022/03/28 08:10:13;;;;;;;4.47;1.85;;;;;;;;;;1685256;84;21324;-70
2022/03/28 08:12:43;;;;;;;4.45;2.08;;;;;;;;;;1696861;84;21045;-70
2022/03/28 08:15:12;;;;;;;9.93;2.20;;;;;;;;;;1685186;85;21006;-70
2022/03/28 08:17:39;;;;;;;4.45;2.17;;;;;;;;;;1685360;84;21540;-70
2022/03/28 08:20:09;;;;;;;3.98;2.25;;;;;;;;;;1685136;84;21081;-70
2022/03/28 08:22:39;;;;;;;5.75;1.90;;;;;;;;;;1685337;85;21045;-70
2022/03/28 08:25:07;;;;;;;4.92;1.60;;;;;;;;;;1685198;84;21041;-70
2022/03/28 08:27:35;;;;;;;3.75;2.05;;;;;;;;;;1685512;85;21009;-70
2022/03/28 08:30:02;;;;;;;3.27;1.60;;;;;;;;;;1685252;85;21069;-70
2022/03/28 08:32:30;;;;;;;3.12;1.80;;;;;;;;;;1673891;85;21021;-70
2022/03/28 08:34:58;;;;;;;3.02;2.05;;;;;;;;;;1685287;85;21041;-70
2022/03/28 08:37:27;;;;;;;5.65;2.10;;;;;;;;;;1685429;85;21536;-70
2022/03/28 08:39:55;;;;;;;2.95;1.55;;;;;;;;;;1685294;85;21053;-70
2022/03/28 08:42:22;;;;;;;5.95;2.12;;;;;;;;;;1685394;85;21021;-70
2022/03/28 08:44:50;;;;;;;2.85;1.60;;;;;;;;;;1685264;85;21619;-70
2022/03/28 08:47:17;;;;;;;4.33;1.98;;;;;;;;;;1685296;85;21495;-70
2022/03/28 08:49:44;;;;;;;2.55;1.67;;;;;;;;;;1685192;84;21603;-70
2022/03/28 08:52:11;;;;;;;11.33;2.65;;;;;;;;;;1673528;85;21650;-70
2022/03/28 08:54:39;;;;;;;5.28;2.15;;;;;;;;;;1685212;85;21005;-69
2022/03/28 08:57:07;;;;;;;5.95;2.30;;;;;;;;;;1685132;85;21013;-69
2022/03/28 08:59:35;;;;;;;3.98;1.90;;;;;;;;;;1685279;84;20958;-70
2022/03/28 09:02:03;;;;;;;5.35;2.33;;;;;;;;;;1685187;85;21041;-70
2022/03/28 09:04:31;;;;;;;3.50;1.85;;;;;;;;;;1685290;83;21104;-70
2022/03/28 09:06:58;;;;;;;3.50;1.80;;;;;;;;;;1684901;85;21061;-70
2022/03/28 09:09:28;;;;;;;4.65;2.40;;;;;;;;;;1685011;84;21029;-70
2022/03/28 09:11:57;;;;;;;3.65;2.22;;;;;;;;;;1684748;84;21048;-70
2022/03/28 09:14:28;;;;;;;8.43;2.75;;;;;;;;;;1684949;85;21603;-71
2022/03/28 09:17:00;;;;;;;5.75;2.10;;;;;;;;;;1685013;85;21603;-70
2022/03/28 09:19:43;;;;;;;4.80;2.50;;;;;;;;;;1684791;84;21041;-71
2022/03/28 09:22:12;;;;;;;6.58;2.75;;;;;;;;;;1684927;85;21000;-70
2022/03/28 09:24:39;;;;;;;5.12;2.47;;;;;;;;;;1685035;85;21634;-70
2022/03/28 09:27:14;;;;;;;5.85;2.87;;;;;;;;;;1685032;84;21084;-70
2022/03/28 09:29:54;;;;;;;8.20;3.25;;;;;;;;;;1684912;85;21013;-71
2022/03/28 09:32:22;;;;;;;5.87;2.65;;;;;;;;;;1684830;85;21005;-71
2022/03/28 09:35:06;;;;;;;7.78;2.90;;;;;;;;;;1684852;85;21005;-71
2022/03/28 09:37:32;;;;;;;;;;;;;;;;;;1687679;85;21005;-70
2022/03/28 09:40:00;;;;;;;7.53;2.40;;;;;;;;;;1684880;85;20133;-70
2022/03/28 09:42:27;;;;;;;5.05;2.92;;;;;;;;;;1673371;85;21033;-71
2022/03/28 09:44:55;;;;;;;6.12;2.80;;;;;;;;;;1685147;85;21069;-70
2022/03/28 09:47:23;;;;;;;10.70;2.45;;;;;;;;;;1684875;85;21022;-70
2022/03/28 09:49:52;;;;;;;6.78;2.60;;;;;;;;;;1684945;85;21085;-70
2022/03/28 09:52:20;;;;;;;4.12;2.25;;;;;;;;;;1685142;85;21215;-71
2022/03/28 09:54:51;;;;;;;8.05;3.60;;;;;;;;;;1685068;85;21045;-71
2022/03/28 09:57:19;;;;;;;8.05;2.83;;;;;;;;;;1685061;85;21021;-70
2022/03/28 09:59:47;;;;;;;4.03;2.35;;;;;;;;;;1685129;84;21009;-71
2022/03/28 10:02:58;;;;;;;7.50;3.22;;;;;;;;;;1795144;79;22827;-70
2022/03/28 10:05:25;;;;;;;7.65;2.70;;;;;;;;;;1753625;82;21392;-70
2022/03/28 10:07:57;;;;;;;8.83;2.95;;;;;;;;;;1753362;82;21012;-70
2022/03/28 10:10:24;;;;;;;5.25;2.67;;;;;;;;;;1753443;82;21014;-70
2022/03/28 10:12:51;;;;;;;4.92;2.65;;;;;;;;;;1753584;82;21064;-70
2022/03/28 10:15:19;;;;;;;7.00;2.40;;;;;;;;;;1753465;82;21009;-71
2022/03/28 10:17:47;;;;;;;5.03;2.77;;;;;;;;;;1753518;82;21028;-70
2022/03/28 10:20:15;;;;;;;4.15;2.62;;;;;;;;;;1753446;82;20993;-70
2022/03/28 10:22:42;;;;;;;4.72;2.50;;;;;;;;;;1753631;82;21029;-71
2022/03/28 10:25:09;;;;;;;3.98;2.75;;;;;;;;;;1753598;82;21013;-70
2022/03/28 10:27:37;;;;;;;4.00;2.40;;;;;;;;;;1753465;82;21559;-70
2022/03/28 10:30:12;;;;;;;3.20;2.10;;;;;;;;;;1753513;82;20996;-70
2022/03/28 10:32:40;;;;;;;5.05;2.40;;;;;;;;;;1752522;82;21044;-70
2022/03/28 10:35:08;;;;;;;4.45;2.33;;;;;;;;;;1753535;82;21052;-70
2022/03/28 10:37:47;;;;;;;9.00;2.95;;;;;;;;;;1753381;81;21052;-70
2022/03/28 10:40:18;;;;;;;6.08;2.98;;;;;;;;;;1724226;82;20973;-70
2022/03/28 10:42:52;;;;;;;5.22;2.42;;;;;;;;;;1753590;82;21025;-69
2022/03/28 10:45:21;;;;;;;4.12;2.22;;;;;;;;;;1753556;82;20977;-70
2022/03/28 10:47:50;;;;;;;5.97;2.08;;;;;;;;;;1753543;82;21036;-69
2022/03/28 10:50:21;;;;;;;5.12;2.20;;;;;;;;;;1753604;82;21064;-70
2022/03/28 10:53:08;;;;;;;5.72;2.40;;;;;;;;;;1753438;82;21572;-70
2022/03/28 10:55:37;;;;;;;5.20;2.67;;;;;;;;;;1753437;82;22156;-70
2022/03/28 10:58:14;;;;;;;8.30;2.80;;;;;;;;;;1753459;82;21057;-70
2022/03/28 11:00:46;;;;;;;9.08;2.80;;;;;;;;;;1753602;82;21011;-69
2022/03/28 11:03:14;;;;;;;8.35;2.83;;;;;;;;;;1708233;82;21053;-69
2022/03/28 11:05:54;;;;;;;7.42;2.87;;;;;;;;;;1751714;82;21057;-69
2022/03/28 11:08:31;;;;;;;5.17;2.35;;;;;;;;;;1753295;82;21041;-69
2022/03/28 11:11:17;;;;;;;6.25;2.42;;;;;;;;;;1753373;82;21543;-69
2022/03/28 11:13:46;;;;;;;7.75;2.58;;;;;;;;;;1753025;82;20997;-71
2022/03/28 11:16:17;;;;;;;5.30;3.25;;;;;;;;;;1730363;82;21064;-71
2022/03/28 11:18:44;;;;;;;5.87;2.42;;;;;;;;;;1753237;82;21040;-71
2022/03/28 11:21:12;;;;;;;6.50;2.70;;;;;;;;;;1752855;82;21084;-70
2022/03/28 11:23:42;;;;;;;5.40;2.35;;;;;;;;;;1753006;82;21512;-70
2022/03/28 11:26:10;;;;;;;6.40;2.55;;;;;;;;;;1753089;82;21032;-70
2022/03/28 11:28:39;;;;;;;6.83;2.72;;;;;;;;;;1752931;82;21038;-71
2022/03/28 11:31:07;;;;;;;5.67;2.65;;;;;;;;;;1753082;82;21032;-70
2022/03/28 11:33:38;;;;;;;7.35;3.25;;;;;;;;;;1752758;82;21029;-71
2022/03/28 11:36:11;;;;;;;6.62;3.25;;;;;;;;;;1752967;82;21076;-70
2022/03/28 11:38:43;;;;;;;7.22;2.72;;;;;;;;;;1753203;82;21040;-70
2022/03/28 11:41:09;;;;;;;6.58;2.90;;;;;;;;;;1752786;82;21091;-71
2022/03/28 11:43:37;;;;;;;4.12;2.40;;;;;;;;;;1753006;82;21064;-70
2022/03/28 11:46:06;;;;;;;8.05;2.65;;;;;;;;;;1753042;82;21008;-70
2022/03/28 11:48:33;;;;;;;4.83;2.85;;;;;;;;;;1751884;82;21048;-70
2022/03/28 11:51:03;;;;;;;6.85;2.50;;;;;;;;;;1752890;82;21025;-71
2022/03/28 11:53:30;;;;;;;5.35;2.60;;;;;;;;;;1751056;82;21001;-70
2022/03/28 11:55:57;;;;;;;8.70;2.90;;;;;;;;;;1723370;82;21001;-70
2022/03/28 11:58:29;;;;;;;10.10;2.98;;;;;;;;;;1752964;82;21539;-70
2022/03/28 12:00:58;;;;;;;6.12;2.55;;;;;;;;;;1752714;82;21052;-70
2022/03/28 12:03:25;;;;;;;8.00;2.92;;;;;;;;;;1746923;82;21587;-70
2022/03/28 12:05:52;;;;;;;5.85;2.27;;;;;;;;;;1747768;82;21068;-70
2022/03/28 12:08:19;;;;;;;12.23;2.92;;;;;;;;;;1748106;82;21013;-70
2022/03/28 12:10:51;;;;;;;5.37;2.90;;;;;;;;;;1747445;82;21049;-71
2022/03/28 12:13:21;;;;;;;7.50;2.62;;;;;;;;;;1747791;82;21033;-71
2022/03/28 12:15:49;;;;;;;6.47;2.90;;;;;;;;;;1747717;82;21025;-72
2022/03/28 12:18:17;;;;;;;6.33;2.55;;;;;;;;;;1748075;82;20988;-71
2022/03/28 12:20:45;;;;;;;9.43;3.08;;;;;;;;;;1747764;82;21480;-70
2022/03/28 12:23:14;;;;;;;10.20;2.77;;;;;;;;;;1747953;82;21009;-71
2022/03/28 12:25:43;;;;;;;6.45;2.40;;;;;;;;;;1747473;82;21080;-70
2022/03/28 12:28:11;;;;;;;6.08;2.87;;;;;;;;;;1747850;82;21527;-71
2022/03/28 12:30:42;;;;;;;6.97;2.55;;;;;;;;;;1747787;82;21032;-71
2022/03/28 12:33:13;;;;;;;6.90;2.60;;;;;;;;;;1747791;82;21204;-70
2022/03/28 12:35:43;;;;;;;9.18;3.00;;;;;;;;;;1747872;82;21599;-69
2022/03/28 12:38:13;;;;;;;4.55;2.25;;;;;;;;;;1747857;82;21049;-69
2022/03/28 12:40:43;;;;;;;9.75;2.98;;;;;;;;;;1747445;82;20998;-70
2022/03/28 12:43:09;;;;;;;6.83;2.83;;;;;;;;;;1747861;82;21080;-70
2022/03/28 12:45:38;;;;;;;6.20;2.90;;;;;;;;;;1748041;82;21488;-70
2022/03/28 12:48:06;;;;;;;10.00;3.40;;;;;;;;;;1747922;82;21508;-70
2022/03/28 12:50:35;;;;;;;10.08;3.05;;;;;;;;;;1748019;82;20997;-71
2022/03/28 12:53:09;;;;;;;7.50;2.55;;;;;;;;;;1744720;82;21048;-69
2022/03/28 12:55:35;;;;;;;;;;;;;;;;;;1750516;82;21095;-70
2022/03/28 12:58:03;;;;;;;8.63;2.90;;;;;;;;;;1747893;82;20087;-70
2022/03/28 13:00:31;;;;;;;5.92;3.20;;;;;;;;;;1747895;82;21017;-70
2022/03/28 13:03:01;;;;;;;5.15;2.33;;;;;;;;;;1751750;81;21080;-70
2022/03/28 13:05:28;;;;;;;8.13;2.75;;;;;;;;;;1726562;82;21004;-71
2022/03/28 13:08:03;;;;;;;8.70;2.72;;;;;;;;;;1753353;81;21485;-70
2022/03/28 13:10:34;;;;;;;10.72;4.53;;;;;;;;;;1753848;82;21032;-71
2022/03/28 13:13:01;;;;;;;9.28;3.70;;;;;;;;;;1753675;82;21000;-70
2022/03/28 13:15:33;;;;;;;7.62;2.95;;;;;;;;;;1753694;82;21016;-70
2022/03/28 13:18:12;;;;;;;5.60;2.67;;;;;;;;;;1753466;82;21080;-70
2022/03/28 13:20:41;;;;;;;15.05;3.17;;;;;;;;;;1753610;82;20989;-70
2022/03/28 13:23:24;;;;;;;5.72;2.95;;;;;;;;;;1753607;82;21551;-69
2022/03/28 13:25:51;;;;;;;3.92;2.55;;;;;;;;;;1753916;82;21028;-70
2022/03/28 13:28:22;;;;;;;11.70;3.27;;;;;;;;;;1753645;82;20969;-70
2022/03/28 13:30:52;;;;;;;5.92;2.42;;;;;;;;;;1753601;82;21008;-70
2022/03/28 13:33:18;;;;;;;8.63;3.22;;;;;;;;;;1725993;82;20977;-71
2022/03/28 13:35:49;;;;;;;16.62;10.82;;;;;;;;;;1753733;81;21007;-70
2022/03/28 13:38:17;;;;;;;20.55;13.53;;;;;;;;;;1753716;82;21044;-71
2022/03/28 13:40:44;;;;;;;13.15;7.20;;;;;;;;;;1725820;82;21008;-70
2022/03/28 13:43:12;;;;;;;9.23;3.85;;;;;;;;;;1753576;82;21020;-71
2022/03/28 13:45:39;;;;;;;7.90;3.17;;;;;;;;;;1753736;82;22181;-70
2022/03/28 13:48:09;;;;;;;9.48;2.92;;;;;;;;;;1753505;82;21013;-71
2022/03/28 13:50:38;;;;;;;14.45;4.97;;;;;;;;;;1753542;82;21052;-71
2022/03/28 13:53:07;;;;;;;11.90;3.80;;;;;;;;;;1753581;82;21452;-71
2022/03/28 13:55:37;;;;;;;12.13;8.05;;;;;;;;;;1753443;82;21067;-70
2022/03/28 13:58:04;;;;;;;14.38;7.87;;;;;;;;;;1753655;82;22081;-71
2022/03/28 14:00:31;;;;;;;13.95;7.55;;;;;;;;;;1753611;82;21998;-71
2022/03/28 14:02:59;;;;;;;14.63;8.05;;;;;;;;;;1753318;82;21110;-70
2022/03/28 14:05:27;;;;;;;17.20;10.60;;;;;;;;;;1753700;82;21500;-70
2022/03/28 14:07:56;;;;;;;16.60;10.43;;;;;;;;;;1753497;81;21056;-70
2022/03/28 14:10:24;;;;;;;17.15;9.78;;;;;;;;;;1753749;82;21020;-69
2022/03/28 14:12:52;;;;;;;17.07;10.63;;;;;;;;;;1753673;82;21047;-71
2022/03/28 14:15:19;;;;;;;14.70;8.20;;;;;;;;;;1753683;81;21547;-70
2022/03/28 14:17:46;;;;;;;18.00;10.85;;;;;;;;;;1753740;82;20980;-70
2022/03/28 14:20:15;;;;;;;17.45;11.53;;;;;;;;;;1753655;82;21595;-71
2022/03/28 14:22:43;;;;;;;16.25;8.18;;;;;;;;;;1753745;81;20997;-70
2022/03/28 14:25:12;;;;;;;7.60;5.22;;;;;;;;;;1753543;82;21179;-71
2022/03/28 14:27:39;;;;;;;10.32;5.90;;;;;;;;;;1753704;82;21041;-70
2022/03/28 14:30:07;;;;;;;10.93;3.85;;;;;;;;;;1753669;82;20994;-70
2022/03/28 14:32:35;;;;;;;8.60;3.25;;;;;;;;;;1753751;82;21507;-71
2022/03/28 14:35:02;;;;;;;7.08;3.00;;;;;;;;;;1753502;82;21595;-70
2022/03/28 14:37:29;;;;;;;6.72;3.70;;;;;;;;;;1753637;82;20977;-70
2022/03/28 14:39:57;;;;;;;7.62;4.15;;;;;;;;;;1753806;82;21005;-70
2022/03/28 14:42:24;;;;;;;5.55;3.27;;;;;;;;;;1754684;82;21070;-70
2022/03/28 14:44:52;;;;;;;9.00;3.20;;;;;;;;;;1754149;82;21038;-70
2022/03/28 14:47:19;;;;;;;5.65;3.37;;;;;;;;;;1753907;82;21001;-70
2022/03/28 14:49:47;;;;;;;5.55;3.40;;;;;;;;;;1754162;82;21012;-71